Terminal Aerodrome Forecast
Issued by NWS Pittsburgh, PA

Current Version | Previous Version | Graphics & Text | Print | Product List | Glossary On
Versions: 1 2 3 4 5 6 7 8 9 10 11 12 13 14 15 16 17 18 19 20 21 22 23 24 25 26
000
FTUS41 KPBZ 180528
TAFPIT
TAF
KPIT 180528Z 1806/1912 00000KT P6SM SCT100
     FM180900 00000KT 3SM BR SCT004
      TEMPO 1811/1813 1SM BR BKN004
     FM181300 00000KT P6SM SCT035
     FM181700 VRB03KT P6SM BKN045
     FM190000 VRB03KT P6SM SCT150=

USA.gov is the U.S. government's official web portal to all federal, state and local government web resources and services.